sensor_id;sensor_type;location;lat;lon;timestamp;temperature;humidity
17715;DHT22;8977;50.902;4.314;2023-08-06T00:01:03;19.00;99.90
17715;DHT22;8977;50.902;4.314;2023-08-06T00:03:30;19.00;99.90
17715;DHT22;8977;50.902;4.314;2023-08-06T00:05:57;19.00;99.90
17715;DHT22;8977;50.902;4.314;2023-08-06T00:08:25;19.00;99.90
17715;DHT22;8977;50.902;4.314;2023-08-06T00:10:52;19.00;99.90
17715;DHT22;8977;50.902;4.314;2023-08-06T00:13:19;19.00;99.90
17715;DHT22;8977;50.902;4.314;2023-08-06T00:15:46;19.00;99.90
17715;DHT22;8977;50.902;4.314;2023-08-06T00:18:13;19.00;99.90
17715;DHT22;8977;50.902;4.314;2023-08-06T00:20:40;19.00;99.90
17715;DHT22;8977;50.902;4.314;2023-08-06T00:23:07;19.00;99.90
17715;DHT22;8977;50.902;4.314;2023-08-06T00:25:36;19.00;99.90
17715;DHT22;8977;50.902;4.314;2023-08-06T00:28:03;19.00;99.90
17715;DHT22;8977;50.902;4.314;2023-08-06T00:30:31;19.10;99.90
17715;DHT22;8977;50.902;4.314;2023-08-06T00:32:58;19.10;99.90
17715;DHT22;8977;50.902;4.314;2023-08-06T00:35:25;19.10;99.90
17715;DHT22;8977;50.902;4.314;2023-08-06T00:37:52;19.10;99.90
17715;DHT22;8977;50.902;4.314;2023-08-06T00:40:20;19.00;99.90
17715;DHT22;8977;50.902;4.314;2023-08-06T00:42:49;19.00;99.90
17715;DHT22;8977;50.902;4.314;2023-08-06T00:45:16;19.00;99.90
17715;DHT22;8977;50.902;4.314;2023-08-06T00:47:43;19.10;99.90
17715;DHT22;8977;50.902;4.314;2023-08-06T00:50:11;19.10;99.90
17715;DHT22;8977;50.902;4.314;2023-08-06T00:52:38;19.00;99.90
17715;DHT22;8977;50.902;4.314;2023-08-06T00:55:06;19.00;99.90
17715;DHT22;8977;50.902;4.314;2023-08-06T00:57:34;19.00;99.90
17715;DHT22;8977;50.902;4.314;2023-08-06T01:00:03;19.00;99.90
17715;DHT22;8977;50.902;4.314;2023-08-06T01:02:30;19.00;99.90
17715;DHT22;8977;50.902;4.314;2023-08-06T01:04:57;19.00;99.90
17715;DHT22;8977;50.902;4.314;2023-08-06T01:07:33;19.00;99.90
17715;DHT22;8977;50.902;4.314;2023-08-06T01:10:19;19.00;99.90
17715;DHT22;8977;50.902;4.314;2023-08-06T01:12:52;19.00;99.90
17715;DHT22;8977;50.902;4.314;2023-08-06T01:15:24;18.90;99.90
17715;DHT22;8977;50.902;4.314;2023-08-06T01:17:54;18.90;99.90
17715;DHT22;8977;50.902;4.314;2023-08-06T01:20:22;18.90;99.90
17715;DHT22;8977;50.902;4.314;2023-08-06T01:22:50;18.90;99.90
17715;DHT22;8977;50.902;4.314;2023-08-06T01:25:17;18.90;99.90
17715;DHT22;8977;50.902;4.314;2023-08-06T01:27:46;18.90;99.90
17715;DHT22;8977;50.902;4.314;2023-08-06T01:30:17;18.90;99.90
17715;DHT22;8977;50.902;4.314;2023-08-06T01:32:52;18.90;99.90
17715;DHT22;8977;50.902;4.314;2023-08-06T01:35:22;18.90;99.90
17715;DHT22;8977;50.902;4.314;2023-08-06T01:37:51;18.90;99.90
17715;DHT22;8977;50.902;4.314;2023-08-06T01:40:18;18.90;99.90
17715;DHT22;8977;50.902;4.314;2023-08-06T01:42:45;18.90;99.90
17715;DHT22;8977;50.902;4.314;2023-08-06T01:45:12;18.90;99.90
17715;DHT22;8977;50.902;4.314;2023-08-06T01:47:39;18.90;99.90
17715;DHT22;8977;50.902;4.314;2023-08-06T01:50:06;18.90;99.90
17715;DHT22;8977;50.902;4.314;2023-08-06T01:52:33;19.00;99.90
17715;DHT22;8977;50.902;4.314;2023-08-06T01:55:02;18.90;99.90
17715;DHT22;8977;50.902;4.314;2023-08-06T01:57:29;18.90;99.90
17715;DHT22;8977;50.902;4.314;2023-08-06T01:59:56;18.90;99.90
17715;DHT22;8977;50.902;4.314;2023-08-06T02:02:23;18.90;99.90
17715;DHT22;8977;50.902;4.314;2023-08-06T02:04:50;18.90;99.90
17715;DHT22;8977;50.902;4.314;2023-08-06T02:07:17;18.90;99.90
17715;DHT22;8977;50.902;4.314;2023-08-06T02:09:43;18.90;99.90
17715;DHT22;8977;50.902;4.314;2023-08-06T02:12:12;18.90;99.90
17715;DHT22;8977;50.902;4.314;2023-08-06T02:14:39;18.90;99.90
17715;DHT22;8977;50.902;4.314;2023-08-06T02:17:06;18.90;99.90
17715;DHT22;8977;50.902;4.314;2023-08-06T02:19:33;18.90;99.90
17715;DHT22;8977;50.902;4.314;2023-08-06T02:22:00;18.90;99.90
17715;DHT22;8977;50.902;4.314;2023-08-06T02:24:27;18.80;99.90
17715;DHT22;8977;50.902;4.314;2023-08-06T02:26:54;18.80;99.90
17715;DHT22;8977;50.902;4.314;2023-08-06T02:29:23;18.80;99.90
17715;DHT22;8977;50.902;4.314;2023-08-06T02:31:50;18.80;99.90
17715;DHT22;8977;50.902;4.314;2023-08-06T02:34:17;18.80;99.90
17715;DHT22;8977;50.902;4.314;2023-08-06T02:36:44;18.80;99.90
17715;DHT22;8977;50.902;4.314;2023-08-06T02:39:11;18.80;99.90
17715;DHT22;8977;50.902;4.314;2023-08-06T02:41:38;18.80;99.90
17715;DHT22;8977;50.902;4.314;2023-08-06T02:44:05;18.80;99.90
17715;DHT22;8977;50.902;4.314;2023-08-06T02:46:33;18.80;99.90
17715;DHT22;8977;50.902;4.314;2023-08-06T02:49:00;18.80;99.90
17715;DHT22;8977;50.902;4.314;2023-08-06T02:51:27;18.80;99.90
17715;DHT22;8977;50.902;4.314;2023-08-06T02:53:54;18.80;99.90
17715;DHT22;8977;50.902;4.314;2023-08-06T02:56:20;18.80;99.90
17715;DHT22;8977;50.902;4.314;2023-08-06T02:58:47;18.90;99.90
17715;DHT22;8977;50.902;4.314;2023-08-06T03:01:14;18.80;99.90
17715;DHT22;8977;50.902;4.314;2023-08-06T03:03:42;18.80;99.90
17715;DHT22;8977;50.902;4.314;2023-08-06T03:06:09;18.90;99.90
17715;DHT22;8977;50.902;4.314;2023-08-06T03:08:36;18.90;99.90
17715;DHT22;8977;50.902;4.314;2023-08-06T03:11:03;18.90;99.90
17715;DHT22;8977;50.902;4.314;2023-08-06T03:13:30;18.90;99.90
17715;DHT22;8977;50.902;4.314;2023-08-06T03:15:58;18.80;99.90
17715;DHT22;8977;50.902;4.314;2023-08-06T03:18:26;18.90;99.90
17715;DHT22;8977;50.902;4.314;2023-08-06T03:20:55;18.80;99.90
17715;DHT22;8977;50.902;4.314;2023-08-06T03:23:22;18.80;99.90
17715;DHT22;8977;50.902;4.314;2023-08-06T03:25:49;18.80;99.90
17715;DHT22;8977;50.902;4.314;2023-08-06T03:28:16;18.90;99.90
17715;DHT22;8977;50.902;4.314;2023-08-06T03:30:43;18.90;99.90
17715;DHT22;8977;50.902;4.314;2023-08-06T03:33:10;18.80;99.90
17715;DHT22;8977;50.902;4.314;2023-08-06T03:35:37;18.70;99.90
17715;DHT22;8977;50.902;4.314;2023-08-06T03:38:05;18.70;99.90
17715;DHT22;8977;50.902;4.314;2023-08-06T03:40:35;18.80;99.90
17715;DHT22;8977;50.902;4.314;2023-08-06T03:43:02;18.80;99.90
17715;DHT22;8977;50.902;4.314;2023-08-06T03:45:28;18.70;99.90
17715;DHT22;8977;50.902;4.314;2023-08-06T03:47:55;18.70;99.90
17715;DHT22;8977;50.902;4.314;2023-08-06T03:50:22;18.70;99.90
17715;DHT22;8977;50.902;4.314;2023-08-06T03:52:49;18.70;99.90
17715;DHT22;8977;50.902;4.314;2023-08-06T03:55:18;18.80;99.90
17715;DHT22;8977;50.902;4.314;2023-08-06T03:57:45;18.80;99.90
17715;DHT22;8977;50.902;4.314;2023-08-06T04:00:12;18.80;99.90
17715;DHT22;8977;50.902;4.314;2023-08-06T04:02:39;18.60;99.90
17715;DHT22;8977;50.902;4.314;2023-08-06T04:05:07;18.70;99.90
17715;DHT22;8977;50.902;4.314;2023-08-06T04:07:34;18.70;99.90
17715;DHT22;8977;50.902;4.314;2023-08-06T04:10:04;18.70;99.90
17715;DHT22;8977;50.902;4.314;2023-08-06T04:12:32;18.60;99.90
17715;DHT22;8977;50.902;4.314;2023-08-06T04:15:02;18.50;99.90
17715;DHT22;8977;50.902;4.314;2023-08-06T04:17:29;18.30;99.90
17715;DHT22;8977;50.902;4.314;2023-08-06T04:19:56;18.30;99.90
17715;DHT22;8977;50.902;4.314;2023-08-06T04:22:24;18.30;99.90
17715;DHT22;8977;50.902;4.314;2023-08-06T04:24:51;18.30;99.90
17715;DHT22;8977;50.902;4.314;2023-08-06T04:27:19;18.30;99.90
17715;DHT22;8977;50.902;4.314;2023-08-06T04:29:47;18.20;99.90
17715;DHT22;8977;50.902;4.314;2023-08-06T04:32:14;18.20;99.90
17715;DHT22;8977;50.902;4.314;2023-08-06T04:34:41;18.20;99.90
17715;DHT22;8977;50.902;4.314;2023-08-06T04:37:09;18.20;99.90
17715;DHT22;8977;50.902;4.314;2023-08-06T04:39:35;18.20;99.90
17715;DHT22;8977;50.902;4.314;2023-08-06T04:42:03;18.10;99.90
17715;DHT22;8977;50.902;4.314;2023-08-06T04:44:30;18.10;99.90
17715;DHT22;8977;50.902;4.314;2023-08-06T04:46:58;18.00;99.90
17715;DHT22;8977;50.902;4.314;2023-08-06T04:49:25;18.20;99.90
17715;DHT22;8977;50.902;4.314;2023-08-06T04:51:52;18.10;99.90
17715;DHT22;8977;50.902;4.314;2023-08-06T04:54:19;18.10;99.90
17715;DHT22;8977;50.902;4.314;2023-08-06T04:56:46;18.10;99.90
17715;DHT22;8977;50.902;4.314;2023-08-06T04:59:13;18.10;99.90
17715;DHT22;8977;50.902;4.314;2023-08-06T05:01:40;18.10;99.90
17715;DHT22;8977;50.902;4.314;2023-08-06T05:04:09;18.00;99.90
17715;DHT22;8977;50.902;4.314;2023-08-06T05:06:35;18.00;99.90
17715;DHT22;8977;50.902;4.314;2023-08-06T05:09:04;17.90;99.90
17715;DHT22;8977;50.902;4.314;2023-08-06T05:11:31;18.00;99.90
17715;DHT22;8977;50.902;4.314;2023-08-06T05:13:58;18.00;99.90
17715;DHT22;8977;50.902;4.314;2023-08-06T05:16:25;18.00;99.90
17715;DHT22;8977;50.902;4.314;2023-08-06T05:18:52;18.10;99.90
17715;DHT22;8977;50.902;4.314;2023-08-06T05:21:21;18.10;99.90
17715;DHT22;8977;50.902;4.314;2023-08-06T05:23:47;18.10;99.90
17715;DHT22;8977;50.902;4.314;2023-08-06T05:26:14;18.10;99.90
17715;DHT22;8977;50.902;4.314;2023-08-06T05:28:44;18.10;99.90
17715;DHT22;8977;50.902;4.314;2023-08-06T05:31:11;18.00;99.90
17715;DHT22;8977;50.902;4.314;2023-08-06T05:33:38;18.00;99.90
17715;DHT22;8977;50.902;4.314;2023-08-06T05:36:05;18.00;99.90
17715;DHT22;8977;50.902;4.314;2023-08-06T05:38:33;18.00;99.90
17715;DHT22;8977;50.902;4.314;2023-08-06T05:41:00;17.90;99.90
17715;DHT22;8977;50.902;4.314;2023-08-06T05:43:27;18.00;99.90
17715;DHT22;8977;50.902;4.314;2023-08-06T05:45:55;18.00;99.90
17715;DHT22;8977;50.902;4.314;2023-08-06T05:48:22;18.00;99.90
17715;DHT22;8977;50.902;4.314;2023-08-06T05:50:51;17.90;99.90
17715;DHT22;8977;50.902;4.314;2023-08-06T05:53:18;18.00;99.90
17715;DHT22;8977;50.902;4.314;2023-08-06T05:55:46;18.00;99.90
17715;DHT22;8977;50.902;4.314;2023-08-06T05:58:13;18.10;99.90
17715;DHT22;8977;50.902;4.314;2023-08-06T06:00:40;18.10;99.90
17715;DHT22;8977;50.902;4.314;2023-08-06T06:03:07;18.00;99.90
17715;DHT22;8977;50.902;4.314;2023-08-06T06:05:34;18.00;99.90
17715;DHT22;8977;50.902;4.314;2023-08-06T06:08:03;18.00;99.90
17715;DHT22;8977;50.902;4.314;2023-08-06T06:10:30;18.00;99.90
17715;DHT22;8977;50.902;4.314;2023-08-06T06:12:59;18.00;99.90
17715;DHT22;8977;50.902;4.314;2023-08-06T06:15:26;17.90;99.90
17715;DHT22;8977;50.902;4.314;2023-08-06T06:17:53;17.90;99.90
17715;DHT22;8977;50.902;4.314;2023-08-06T06:20:20;17.90;99.90
17715;DHT22;8977;50.902;4.314;2023-08-06T06:22:47;17.90;99.90
17715;DHT22;8977;50.902;4.314;2023-08-06T06:25:14;18.00;99.90
17715;DHT22;8977;50.902;4.314;2023-08-06T06:27:40;18.00;99.90
17715;DHT22;8977;50.902;4.314;2023-08-06T06:30:10;18.00;99.90
17715;DHT22;8977;50.902;4.314;2023-08-06T06:32:37;18.00;99.90
17715;DHT22;8977;50.902;4.314;2023-08-06T06:35:06;18.00;99.90
17715;DHT22;8977;50.902;4.314;2023-08-06T06:37:33;18.00;99.90
17715;DHT22;8977;50.902;4.314;2023-08-06T06:40:00;18.00;99.90
17715;DHT22;8977;50.902;4.314;2023-08-06T06:42:27;18.00;99.90
17715;DHT22;8977;50.902;4.314;2023-08-06T06:44:53;18.00;99.90
17715;DHT22;8977;50.902;4.314;2023-08-06T06:47:22;18.00;99.90
17715;DHT22;8977;50.902;4.314;2023-08-06T06:49:49;17.90;99.90
17715;DHT22;8977;50.902;4.314;2023-08-06T06:52:16;18.00;99.90
17715;DHT22;8977;50.902;4.314;2023-08-06T06:54:43;18.00;99.90
17715;DHT22;8977;50.902;4.314;2023-08-06T06:57:10;18.00;99.90
17715;DHT22;8977;50.902;4.314;2023-08-06T06:59:37;18.20;99.90
17715;DHT22;8977;50.902;4.314;2023-08-06T07:02:04;18.00;99.90
17715;DHT22;8977;50.902;4.314;2023-08-06T07:04:33;18.10;99.90
17715;DHT22;8977;50.902;4.314;2023-08-06T07:07:00;18.20;99.90
17715;DHT22;8977;50.902;4.314;2023-08-06T07:09:27;18.10;99.90
17715;DHT22;8977;50.902;4.314;2023-08-06T07:11:54;18.10;99.90
17715;DHT22;8977;50.902;4.314;2023-08-06T07:14:21;18.10;99.90
17715;DHT22;8977;50.902;4.314;2023-08-06T07:16:48;18.00;99.90
17715;DHT22;8977;50.902;4.314;2023-08-06T07:19:15;18.00;99.90
17715;DHT22;8977;50.902;4.314;2023-08-06T07:21:43;18.10;99.90
17715;DHT22;8977;50.902;4.314;2023-08-06T07:24:10;18.10;99.90
17715;DHT22;8977;50.902;4.314;2023-08-06T07:26:37;18.00;99.90
17715;DHT22;8977;50.902;4.314;2023-08-06T07:29:05;18.00;99.90
17715;DHT22;8977;50.902;4.314;2023-08-06T07:31:31;18.10;99.90
17715;DHT22;8977;50.902;4.314;2023-08-06T07:33:59;18.20;99.90
17715;DHT22;8977;50.902;4.314;2023-08-06T07:36:26;18.20;99.90
17715;DHT22;8977;50.902;4.314;2023-08-06T07:38:54;18.10;99.90
17715;DHT22;8977;50.902;4.314;2023-08-06T07:41:22;18.10;99.90
17715;DHT22;8977;50.902;4.314;2023-08-06T07:43:49;18.00;99.90
17715;DHT22;8977;50.902;4.314;2023-08-06T07:46:16;18.00;99.90
17715;DHT22;8977;50.902;4.314;2023-08-06T07:48:43;18.00;99.90
17715;DHT22;8977;50.902;4.314;2023-08-06T07:51:10;18.00;99.90
17715;DHT22;8977;50.902;4.314;2023-08-06T07:53:38;18.00;99.90
17715;DHT22;8977;50.902;4.314;2023-08-06T07:56:07;17.90;99.90
17715;DHT22;8977;50.902;4.314;2023-08-06T07:58:33;18.00;99.90
17715;DHT22;8977;50.902;4.314;2023-08-06T08:01:00;18.00;99.90
17715;DHT22;8977;50.902;4.314;2023-08-06T08:03:27;18.10;99.90
17715;DHT22;8977;50.902;4.314;2023-08-06T08:05:55;18.10;99.90
17715;DHT22;8977;50.902;4.314;2023-08-06T08:08:24;18.10;99.90
17715;DHT22;8977;50.902;4.314;2023-08-06T08:10:51;18.10;99.90
17715;DHT22;8977;50.902;4.314;2023-08-06T08:13:19;18.10;99.90
17715;DHT22;8977;50.902;4.314;2023-08-06T08:15:46;18.20;99.90
17715;DHT22;8977;50.902;4.314;2023-08-06T08:18:13;18.20;99.90
17715;DHT22;8977;50.902;4.314;2023-08-06T08:20:40;18.20;99.90
17715;DHT22;8977;50.902;4.314;2023-08-06T08:23:07;18.30;99.90
17715;DHT22;8977;50.902;4.314;2023-08-06T08:25:34;18.30;99.90
17715;DHT22;8977;50.902;4.314;2023-08-06T08:28:01;18.20;99.90
17715;DHT22;8977;50.902;4.314;2023-08-06T08:30:29;18.30;99.90
17715;DHT22;8977;50.902;4.314;2023-08-06T08:32:56;18.20;99.90
17715;DHT22;8977;50.902;4.314;2023-08-06T08:35:23;18.20;99.90
17715;DHT22;8977;50.902;4.314;2023-08-06T08:37:50;18.20;99.90
17715;DHT22;8977;50.902;4.314;2023-08-06T08:40:17;18.20;99.90
17715;DHT22;8977;50.902;4.314;2023-08-06T08:42:44;18.30;99.90
17715;DHT22;8977;50.902;4.314;2023-08-06T08:45:13;18.20;99.90
17715;DHT22;8977;50.902;4.314;2023-08-06T08:47:43;18.30;99.90
17715;DHT22;8977;50.902;4.314;2023-08-06T08:50:11;18.30;99.90
17715;DHT22;8977;50.902;4.314;2023-08-06T08:52:40;18.20;99.90
17715;DHT22;8977;50.902;4.314;2023-08-06T08:55:08;18.40;99.90
17715;DHT22;8977;50.902;4.314;2023-08-06T08:57:35;18.30;99.90
17715;DHT22;8977;50.902;4.314;2023-08-06T09:00:05;18.40;99.90
17715;DHT22;8977;50.902;4.314;2023-08-06T09:02:33;18.30;99.90
17715;DHT22;8977;50.902;4.314;2023-08-06T09:05:03;18.30;99.90
17715;DHT22;8977;50.902;4.314;2023-08-06T09:07:35;18.40;99.90
17715;DHT22;8977;50.902;4.314;2023-08-06T09:10:07;18.30;99.90
17715;DHT22;8977;50.902;4.314;2023-08-06T09:12:35;18.40;99.90
17715;DHT22;8977;50.902;4.314;2023-08-06T09:15:02;18.30;99.90
17715;DHT22;8977;50.902;4.314;2023-08-06T09:17:29;18.30;99.90
17715;DHT22;8977;50.902;4.314;2023-08-06T09:19:56;18.20;99.90
17715;DHT22;8977;50.902;4.314;2023-08-06T09:22:25;18.10;99.90
17715;DHT22;8977;50.902;4.314;2023-08-06T09:24:59;18.20;99.90
17715;DHT22;8977;50.902;4.314;2023-08-06T09:27:26;18.10;99.90
17715;DHT22;8977;50.902;4.314;2023-08-06T09:29:53;18.10;99.90
17715;DHT22;8977;50.902;4.314;2023-08-06T09:32:20;18.10;99.90
17715;DHT22;8977;50.902;4.314;2023-08-06T09:34:55;18.10;99.90
17715;DHT22;8977;50.902;4.314;2023-08-06T09:37:22;18.10;99.90
17715;DHT22;8977;50.902;4.314;2023-08-06T09:39:50;18.00;99.90
17715;DHT22;8977;50.902;4.314;2023-08-06T09:42:19;18.00;99.90
17715;DHT22;8977;50.902;4.314;2023-08-06T09:44:46;18.00;99.90
17715;DHT22;8977;50.902;4.314;2023-08-06T09:47:16;18.00;99.90
17715;DHT22;8977;50.902;4.314;2023-08-06T09:49:43;18.10;99.90
17715;DHT22;8977;50.902;4.314;2023-08-06T09:52:12;18.10;99.90
17715;DHT22;8977;50.902;4.314;2023-08-06T09:54:43;18.00;99.90
17715;DHT22;8977;50.902;4.314;2023-08-06T09:57:12;18.00;99.90
17715;DHT22;8977;50.902;4.314;2023-08-06T09:59:39;18.00;99.90
17715;DHT22;8977;50.902;4.314;2023-08-06T10:02:12;18.10;99.90
17715;DHT22;8977;50.902;4.314;2023-08-06T10:04:39;18.10;99.90
17715;DHT22;8977;50.902;4.314;2023-08-06T10:07:07;18.10;99.90
17715;DHT22;8977;50.902;4.314;2023-08-06T10:09:34;18.00;99.90
17715;DHT22;8977;50.902;4.314;2023-08-06T10:12:01;18.00;99.90
17715;DHT22;8977;50.902;4.314;2023-08-06T10:14:33;18.00;99.90
17715;DHT22;8977;50.902;4.314;2023-08-06T10:17:03;18.00;99.90
17715;DHT22;8977;50.902;4.314;2023-08-06T10:19:31;18.00;99.90
17715;DHT22;8977;50.902;4.314;2023-08-06T10:22:14;18.00;99.90
17715;DHT22;8977;50.902;4.314;2023-08-06T10:24:49;18.20;99.90
17715;DHT22;8977;50.902;4.314;2023-08-06T10:27:27;18.10;99.90
17715;DHT22;8977;50.902;4.314;2023-08-06T10:29:56;18.00;99.90
17715;DHT22;8977;50.902;4.314;2023-08-06T10:32:50;18.00;99.90
17715;DHT22;8977;50.902;4.314;2023-08-06T10:35:31;18.00;99.90
17715;DHT22;8977;50.902;4.314;2023-08-06T10:38:02;17.90;99.90
17715;DHT22;8977;50.902;4.314;2023-08-06T10:40:30;17.90;99.90
17715;DHT22;8977;50.902;4.314;2023-08-06T10:42:59;17.70;99.90
17715;DHT22;8977;50.902;4.314;2023-08-06T10:45:27;17.80;99.90
17715;DHT22;8977;50.902;4.314;2023-08-06T10:47:56;17.70;99.90
17715;DHT22;8977;50.902;4.314;2023-08-06T10:50:24;17.80;99.90
17715;DHT22;8977;50.902;4.314;2023-08-06T10:52:51;17.80;99.90
17715;DHT22;8977;50.902;4.314;2023-08-06T10:55:25;17.80;99.90
17715;DHT22;8977;50.902;4.314;2023-08-06T10:57:54;17.90;99.90
17715;DHT22;8977;50.902;4.314;2023-08-06T11:00:22;17.70;99.90
17715;DHT22;8977;50.902;4.314;2023-08-06T11:02:52;17.70;99.90
17715;DHT22;8977;50.902;4.314;2023-08-06T11:05:19;17.80;99.90
17715;DHT22;8977;50.902;4.314;2023-08-06T11:07:46;17.70;99.90
17715;DHT22;8977;50.902;4.314;2023-08-06T11:10:15;17.70;99.90
17715;DHT22;8977;50.902;4.314;2023-08-06T11:12:42;17.70;99.90
17715;DHT22;8977;50.902;4.314;2023-08-06T11:15:10;17.80;99.90
17715;DHT22;8977;50.902;4.314;2023-08-06T11:17:40;17.90;99.90
17715;DHT22;8977;50.902;4.314;2023-08-06T11:20:09;17.90;99.90
17715;DHT22;8977;50.902;4.314;2023-08-06T11:22:37;17.90;99.90
17715;DHT22;8977;50.902;4.314;2023-08-06T11:25:06;17.80;99.90
17715;DHT22;8977;50.902;4.314;2023-08-06T11:27:33;17.90;99.90
17715;DHT22;8977;50.902;4.314;2023-08-06T11:30:00;17.90;99.90
17715;DHT22;8977;50.902;4.314;2023-08-06T11:32:27;17.90;99.90
17715;DHT22;8977;50.902;4.314;2023-08-06T11:34:54;17.90;99.90
17715;DHT22;8977;50.902;4.314;2023-08-06T11:37:23;17.80;99.90
17715;DHT22;8977;50.902;4.314;2023-08-06T11:39:52;17.70;99.90
17715;DHT22;8977;50.902;4.314;2023-08-06T11:42:19;17.70;99.90
17715;DHT22;8977;50.902;4.314;2023-08-06T11:44:46;17.70;99.90
17715;DHT22;8977;50.902;4.314;2023-08-06T11:47:15;17.60;99.90
17715;DHT22;8977;50.902;4.314;2023-08-06T11:49:44;17.60;99.90
17715;DHT22;8977;50.902;4.314;2023-08-06T11:52:17;17.60;99.90
17715;DHT22;8977;50.902;4.314;2023-08-06T11:54:47;17.60;99.90
17715;DHT22;8977;50.902;4.314;2023-08-06T11:57:15;17.60;99.90
17715;DHT22;8977;50.902;4.314;2023-08-06T11:59:43;17.60;99.90
17715;DHT22;8977;50.902;4.314;2023-08-06T12:02:10;17.60;99.90
17715;DHT22;8977;50.902;4.314;2023-08-06T12:04:59;17.70;99.90
17715;DHT22;8977;50.902;4.314;2023-08-06T12:07:28;17.70;99.90
17715;DHT22;8977;50.902;4.314;2023-08-06T12:09:56;17.60;99.90
17715;DHT22;8977;50.902;4.314;2023-08-06T12:12:24;17.80;99.90
17715;DHT22;8977;50.902;4.314;2023-08-06T12:14:51;17.80;99.90
17715;DHT22;8977;50.902;4.314;2023-08-06T12:17:18;17.90;99.90
17715;DHT22;8977;50.902;4.314;2023-08-06T12:19:45;18.00;99.90
17715;DHT22;8977;50.902;4.314;2023-08-06T12:22:13;18.00;99.90
17715;DHT22;8977;50.902;4.314;2023-08-06T12:24:40;18.00;99.90
17715;DHT22;8977;50.902;4.314;2023-08-06T12:27:09;17.90;99.90
17715;DHT22;8977;50.902;4.314;2023-08-06T12:29:37;18.00;99.90
17715;DHT22;8977;50.902;4.314;2023-08-06T12:32:04;18.00;99.90
17715;DHT22;8977;50.902;4.314;2023-08-06T12:34:31;18.10;99.90
17715;DHT22;8977;50.902;4.314;2023-08-06T12:36:58;18.10;99.90
17715;DHT22;8977;50.902;4.314;2023-08-06T12:39:25;18.10;99.90
17715;DHT22;8977;50.902;4.314;2023-08-06T12:41:54;18.10;99.90
17715;DHT22;8977;50.902;4.314;2023-08-06T12:44:24;18.00;99.90
17715;DHT22;8977;50.902;4.314;2023-08-06T12:46:51;18.10;99.90
17715;DHT22;8977;50.902;4.314;2023-08-06T12:49:18;18.20;99.90
17715;DHT22;8977;50.902;4.314;2023-08-06T12:51:46;18.10;99.90
17715;DHT22;8977;50.902;4.314;2023-08-06T12:54:13;18.10;99.90
17715;DHT22;8977;50.902;4.314;2023-08-06T12:56:40;18.10;99.90
17715;DHT22;8977;50.902;4.314;2023-08-06T12:59:07;18.20;99.90
17715;DHT22;8977;50.902;4.314;2023-08-06T13:01:37;18.10;99.90
17715;DHT22;8977;50.902;4.314;2023-08-06T13:04:04;18.10;99.90
17715;DHT22;8977;50.902;4.314;2023-08-06T13:06:31;18.10;99.90
17715;DHT22;8977;50.902;4.314;2023-08-06T13:09:01;18.10;99.90
17715;DHT22;8977;50.902;4.314;2023-08-06T13:11:29;18.00;99.90
17715;DHT22;8977;50.902;4.314;2023-08-06T13:13:59;18.00;99.90
17715;DHT22;8977;50.902;4.314;2023-08-06T13:16:26;18.10;99.90
17715;DHT22;8977;50.902;4.314;2023-08-06T13:18:56;18.00;99.90
17715;DHT22;8977;50.902;4.314;2023-08-06T13:21:22;18.00;99.90
17715;DHT22;8977;50.902;4.314;2023-08-06T13:23:49;18.10;99.90
17715;DHT22;8977;50.902;4.314;2023-08-06T13:26:17;18.10;99.90
17715;DHT22;8977;50.902;4.314;2023-08-06T13:28:44;18.10;99.90
17715;DHT22;8977;50.902;4.314;2023-08-06T13:31:11;18.10;99.90
17715;DHT22;8977;50.902;4.314;2023-08-06T13:33:38;18.00;99.90
17715;DHT22;8977;50.902;4.314;2023-08-06T13:36:06;18.00;99.90
17715;DHT22;8977;50.902;4.314;2023-08-06T13:38:33;17.90;99.90
17715;DHT22;8977;50.902;4.314;2023-08-06T13:41:01;18.00;99.90
17715;DHT22;8977;50.902;4.314;2023-08-06T13:43:28;18.00;99.90
17715;DHT22;8977;50.902;4.314;2023-08-06T13:45:55;18.00;99.90
17715;DHT22;8977;50.902;4.314;2023-08-06T13:48:23;17.90;99.90
17715;DHT22;8977;50.902;4.314;2023-08-06T13:50:49;17.90;99.90
17715;DHT22;8977;50.902;4.314;2023-08-06T13:53:18;17.80;99.90
17715;DHT22;8977;50.902;4.314;2023-08-06T13:55:45;17.80;99.90
17715;DHT22;8977;50.902;4.314;2023-08-06T13:58:12;17.70;99.90
17715;DHT22;8977;50.902;4.314;2023-08-06T14:00:39;17.70;99.90
17715;DHT22;8977;50.902;4.314;2023-08-06T14:03:06;17.70;99.90
17715;DHT22;8977;50.902;4.314;2023-08-06T14:05:34;17.80;99.90
17715;DHT22;8977;50.902;4.314;2023-08-06T14:08:01;17.70;99.90
17715;DHT22;8977;50.902;4.314;2023-08-06T14:10:29;17.80;99.90
17715;DHT22;8977;50.902;4.314;2023-08-06T14:12:56;17.80;99.90
17715;DHT22;8977;50.902;4.314;2023-08-06T14:15:23;17.90;99.90
17715;DHT22;8977;50.902;4.314;2023-08-06T14:17:50;17.80;99.90
17715;DHT22;8977;50.902;4.314;2023-08-06T14:20:17;17.70;99.90
17715;DHT22;8977;50.902;4.314;2023-08-06T14:22:44;17.60;99.90
17715;DHT22;8977;50.902;4.314;2023-08-06T14:25:11;17.60;99.90
17715;DHT22;8977;50.902;4.314;2023-08-06T14:27:39;17.60;99.90
17715;DHT22;8977;50.902;4.314;2023-08-06T14:30:07;17.60;99.90
17715;DHT22;8977;50.902;4.314;2023-08-06T14:32:35;17.60;99.90
17715;DHT22;8977;50.902;4.314;2023-08-06T14:35:02;17.60;99.90
17715;DHT22;8977;50.902;4.314;2023-08-06T14:37:29;17.70;99.90
17715;DHT22;8977;50.902;4.314;2023-08-06T14:39:56;17.70;99.90
17715;DHT22;8977;50.902;4.314;2023-08-06T14:42:23;17.60;99.90
17715;DHT22;8977;50.902;4.314;2023-08-06T14:44:51;17.60;99.90
17715;DHT22;8977;50.902;4.314;2023-08-06T14:47:18;17.60;99.90
17715;DHT22;8977;50.902;4.314;2023-08-06T14:49:45;17.70;99.90
17715;DHT22;8977;50.902;4.314;2023-08-06T14:52:13;17.60;99.90
17715;DHT22;8977;50.902;4.314;2023-08-06T14:54:40;17.70;99.90
17715;DHT22;8977;50.902;4.314;2023-08-06T14:57:08;17.70;99.90
17715;DHT22;8977;50.902;4.314;2023-08-06T14:59:35;17.70;99.90
17715;DHT22;8977;50.902;4.314;2023-08-06T15:02:04;17.70;99.90
17715;DHT22;8977;50.902;4.314;2023-08-06T15:04:31;17.70;99.90
17715;DHT22;8977;50.902;4.314;2023-08-06T15:06:58;17.70;99.90
17715;DHT22;8977;50.902;4.314;2023-08-06T15:09:25;17.80;99.90
17715;DHT22;8977;50.902;4.314;2023-08-06T15:11:52;17.80;99.90
17715;DHT22;8977;50.902;4.314;2023-08-06T15:14:19;17.70;99.90
17715;DHT22;8977;50.902;4.314;2023-08-06T15:16:47;17.70;99.90
17715;DHT22;8977;50.902;4.314;2023-08-06T15:19:15;17.70;99.90
17715;DHT22;8977;50.902;4.314;2023-08-06T15:21:42;17.60;99.90
17715;DHT22;8977;50.902;4.314;2023-08-06T15:24:09;17.70;99.90
17715;DHT22;8977;50.902;4.314;2023-08-06T15:26:37;17.70;99.90
17715;DHT22;8977;50.902;4.314;2023-08-06T15:29:04;17.60;99.90
17715;DHT22;8977;50.902;4.314;2023-08-06T15:31:36;17.60;99.90
17715;DHT22;8977;50.902;4.314;2023-08-06T15:34:03;17.60;99.90
17715;DHT22;8977;50.902;4.314;2023-08-06T15:36:32;17.70;99.90
17715;DHT22;8977;50.902;4.314;2023-08-06T15:38:59;17.60;99.90
17715;DHT22;8977;50.902;4.314;2023-08-06T15:41:26;17.70;99.90
17715;DHT22;8977;50.902;4.314;2023-08-06T15:43:53;17.70;99.90
17715;DHT22;8977;50.902;4.314;2023-08-06T15:46:20;17.70;99.90
17715;DHT22;8977;50.902;4.314;2023-08-06T15:48:47;17.80;99.90